Flight Track Log - Related Links

Times and Time Zones

All times are in EDT time to prevent confusion due to time zone crossing. See the N210CM flight status page for this flight to view local times or setup timezone preferences in your user account.

Time Position Orientation Groundspeed Altitude Reporting Facility
EDT Latitude Longitude Course Direction KTS MPH feet Rate Location/Type
Thu 04:48:41 PM 33.3075 -81.9931 301° West 165 190 20,000  Level Atlanta Center
Thu 04:49:41 PM 33.3381 -82.0719 295° West 160 184 6,100 -5,500 Descending Atlanta Center
Thu 04:50:41 PM 33.3853 -82.1506 306° West 199 229 9,000 2,450 Climbing Atlanta Center
Thu 04:51:41 PM 33.4303 -82.2267 305° West 254 292 11,000 1,900 Climbing Atlanta Center
Thu 04:52:41 PM 33.4775 -82.3153 303° West 296 341 12,800 1,750 Climbing Atlanta Center
Thu 04:53:00 PM 33.6055 -82.4109 301° West  Level FlightAware Approximate
Thu 04:53:41 PM 33.5331 -82.4089 305° West 318 366 14,500  Level Atlanta Center
Thu 04:54:00 PM 33.6445 -82.4889 301° West  Level FlightAware Approximate
Thu 04:54:41 PM 33.5864 -82.4978 306° West 324 373 16,300  Level Atlanta Center
Thu 04:55:41 PM 33.6353 -82.5867 303° West 324 373 17,900 1,650 Climbing Atlanta Center
Thu 04:56:41 PM 33.6844 -82.6758 304° West 324 373 19,600 1,050 Climbing Atlanta Center
Thu 04:57:41 PM 33.7356 -82.7697 303° West 329 379 20,000 200 Climbing Atlanta Center
Thu 04:58:41 PM 33.7928 -82.8714 304° West 350 403 20,000  Level Atlanta Center
Thu 04:59:41 PM 33.8522 -82.9733 305° West 372 428 20,000  Level Atlanta Center
Thu 05:00:41 PM 33.9261 -83.0575 317° Northwest 372 428 20,000  Level Atlanta Center
Thu 05:01:41 PM 34.0122 -83.1367 323° Northwest 379 436 20,000  Level Atlanta Center
Thu 05:02:41 PM 34.0961 -83.2186 321° Northwest 379 436 20,000  Level Atlanta Center
Thu 05:03:41 PM 34.1822 -83.3006 322° Northwest 390 449 20,000  Level Atlanta Center
Thu 05:04:41 PM 34.2536 -83.3728 320° Northwest 384 442 20,000  Level Atlanta Center
Thu 05:05:41 PM 34.3397 -83.4603 320° Northwest 384 442 20,000  Level Atlanta Center
Thu 05:06:41 PM 34.4214 -83.5378 322° Northwest 384 442 20,000  Level Atlanta Center
Thu 05:07:41 PM 34.5031 -83.6203 320° Northwest 384 442 20,000  Level Atlanta Center
Thu 05:08:41 PM 34.5722 -83.7133 312° West 371 427 20,000  Level Atlanta Center
Thu 05:09:41 PM 34.6331 -83.8167 306° West 376 433 20,000 -800 Level Atlanta Center
Thu 05:10:41 PM 34.6936 -83.9275 304° West 376 433 18,400 -2,000 Descending Atlanta Center
Thu 05:11:41 PM 34.7458 -84.0136 306° West 346 398 16,000 -2,450 Descending Atlanta Center
Thu 05:12:41 PM 34.7939 -84.0944 306° West 314 361 13,500 -2,450 Descending Atlanta Center
Thu 05:13:41 PM 34.8419 -84.1728 307° West 300 345 11,100 -2,400 Descending Atlanta Center
Thu 05:14:41 PM 34.8878 -84.2464 307° West 288 331 8,700 -2,450 Descending Atlanta Center
Thu 05:15:41 PM 34.9333 -84.3275 304° West 283 326 6,200 -1,350 Descending Atlanta Center
Thu 05:16:41 PM 34.9769 -84.4039 305° West 288 331 6,000 -100 Descending Atlanta Center
Thu 05:17:41 PM 35.0247 -84.4825 307° West 288 331 6,000  Level Atlanta Center
Thu 05:18:41 PM 35.0703 -84.5614 305° West 288 331 6,000  Level Atlanta Center
Thu 05:19:41 PM 35.1139 -84.6356 306° West 282 325 6,000 -500 Level Atlanta Center
Thu 05:20:41 PM 35.1469 -84.6942 305° West 277 319 5,000  Descending Atlanta Center
Thu 05:21:41 PM 35.1925 -84.7783 304° West 277 319 6,000 500 Climbing Atlanta Center
Thu 05:22:41 PM 35.2336 -84.8550 303° West 277 319 6,000  Level Atlanta Center
Thu 05:23:41 PM 35.2667 -84.9164 303° West 277 319 6,000  Level Atlanta Center
Thu 05:25:41 PM 35.2667 -84.9164 165° South 277 319 6,000  Level Atlanta Center

Login

Don't have an account? Register now (free) for customized features, flight alerts, and more!